sensor_id;sensor_type;location;lat;lon;timestamp;pressure;altitude;pressure_sealevel;temperature;humidity
76404;BME280;65232;48.358;2.122;2023-02-11T00:00:14;103127.09;;;3.16;79.54
76404;BME280;65232;48.358;2.122;2023-02-11T00:00:41;103128.81;;;3.20;79.50
76404;BME280;65232;48.358;2.122;2023-02-11T00:01:10;103135.00;;;3.19;79.79
76404;BME280;65232;48.358;2.122;2023-02-11T00:01:36;103131.41;;;3.23;79.44
76404;BME280;65232;48.358;2.122;2023-02-11T00:02:03;103124.38;;;3.22;79.20
76404;BME280;65232;48.358;2.122;2023-02-11T00:02:31;103125.34;;;3.15;79.68
76404;BME280;65232;48.358;2.122;2023-02-11T00:02:56;103126.25;;;3.14;79.73
76404;BME280;65232;48.358;2.122;2023-02-11T00:03:22;103125.38;;;3.12;79.95
76404;BME280;65232;48.358;2.122;2023-02-11T00:03:47;103128.03;;;3.12;79.78
76404;BME280;65232;48.358;2.122;2023-02-11T00:04:13;103125.38;;;3.12;79.96
76404;BME280;65232;48.358;2.122;2023-02-11T00:04:38;103120.94;;;3.14;80.14
76404;BME280;65232;48.358;2.122;2023-02-11T00:05:04;103128.06;;;3.10;80.19
76404;BME280;65232;48.358;2.122;2023-02-11T00:05:30;103123.69;;;3.09;80.02
76404;BME280;65232;48.358;2.122;2023-02-11T00:05:59;103121.03;;;3.11;80.27
76404;BME280;65232;48.358;2.122;2023-02-11T00:06:26;103127.22;;;3.08;80.30
76404;BME280;65232;48.358;2.122;2023-02-11T00:06:52;103131.63;;;3.08;80.36
76404;BME280;65232;48.358;2.122;2023-02-11T00:07:18;103121.09;;;3.05;80.58
76404;BME280;65232;48.358;2.122;2023-02-11T00:07:43;103128.16;;;3.03;80.66
76404;BME280;65232;48.358;2.122;2023-02-11T00:08:09;103129.03;;;3.03;80.53
76404;BME280;65232;48.358;2.122;2023-02-11T00:08:34;103126.44;;;2.99;81.05
76404;BME280;65232;48.358;2.122;2023-02-11T00:09:00;103126.53;;;2.96;81.16
76404;BME280;65232;48.358;2.122;2023-02-11T00:09:26;103123.91;;;2.94;81.29
76404;BME280;65232;48.358;2.122;2023-02-11T00:09:51;103122.91;;;3.01;81.32
76404;BME280;65232;48.358;2.122;2023-02-11T00:10:17;103126.38;;;3.05;80.98
76404;BME280;65232;48.358;2.122;2023-02-11T00:10:42;103127.25;;;3.07;80.95
76404;BME280;65232;48.358;2.122;2023-02-11T00:11:15;103116.63;;;3.08;80.93
76404;BME280;65232;48.358;2.122;2023-02-11T00:11:41;103125.38;;;3.12;80.94
76404;BME280;65232;48.358;2.122;2023-02-11T00:12:06;103117.44;;;3.12;80.90
76404;BME280;65232;48.358;2.122;2023-02-11T00:12:33;103122.81;;;3.09;80.71
76404;BME280;65232;48.358;2.122;2023-02-11T00:12:59;103131.66;;;3.05;80.90
76404;BME280;65232;48.358;2.122;2023-02-11T00:13:25;103121.06;;;3.06;80.82
76404;BME280;65232;48.358;2.122;2023-02-11T00:13:50;103123.75;;;3.03;80.88
76404;BME280;65232;48.358;2.122;2023-02-11T00:14:16;103126.38;;;3.06;80.71
76404;BME280;65232;48.358;2.122;2023-02-11T00:14:41;103121.84;;;3.13;80.52
76404;BME280;65232;48.358;2.122;2023-02-11T00:15:08;103124.41;;;3.19;80.48
76404;BME280;65232;48.358;2.122;2023-02-11T00:15:33;103116.47;;;3.21;80.19
76404;BME280;65232;48.358;2.122;2023-02-11T00:15:59;103120.84;;;3.22;80.19
76404;BME280;65232;48.358;2.122;2023-02-11T00:16:24;103127.03;;;3.22;79.96
76404;BME280;65232;48.358;2.122;2023-02-11T00:16:50;103123.56;;;3.17;80.20
76404;BME280;65232;48.358;2.122;2023-02-11T00:17:15;103119.97;;;3.21;80.15
76404;BME280;65232;48.358;2.122;2023-02-11T00:17:41;103123.53;;;3.18;80.37
76404;BME280;65232;48.358;2.122;2023-02-11T00:18:06;103117.31;;;3.23;80.04
76404;BME280;65232;48.358;2.122;2023-02-11T00:18:32;103117.34;;;3.19;80.12
76404;BME280;65232;48.358;2.122;2023-02-11T00:18:58;103115.53;;;3.23;80.00
76404;BME280;65232;48.358;2.122;2023-02-11T00:19:24;103117.28;;;3.24;80.08
76404;BME280;65232;48.358;2.122;2023-02-11T00:19:50;103118.94;;;3.30;79.83
76404;BME280;65232;48.358;2.122;2023-02-11T00:20:16;103118.97;;;3.28;79.67
76404;BME280;65232;48.358;2.122;2023-02-11T00:20:42;103115.44;;;3.28;79.65
76404;BME280;65232;48.358;2.122;2023-02-11T00:21:10;103118.06;;;3.29;79.93
76404;BME280;65232;48.358;2.122;2023-02-11T00:21:35;103121.56;;;3.31;79.68
76404;BME280;65232;48.358;2.122;2023-02-11T00:22:01;103114.56;;;3.29;79.96
76404;BME280;65232;48.358;2.122;2023-02-11T00:22:26;103118.09;;;3.28;79.97
76404;BME280;65232;48.358;2.122;2023-02-11T00:22:52;103122.50;;;3.29;79.93
76404;BME280;65232;48.358;2.122;2023-02-11T00:23:17;103122.50;;;3.29;79.92
76404;BME280;65232;48.358;2.122;2023-02-11T00:23:44;103119.88;;;3.27;79.81
76404;BME280;65232;48.358;2.122;2023-02-11T00:24:09;103120.69;;;3.32;79.65
76404;BME280;65232;48.358;2.122;2023-02-11T00:24:35;103117.13;;;3.33;79.49
76404;BME280;65232;48.358;2.122;2023-02-11T00:25:00;103117.09;;;3.36;79.43
76404;BME280;65232;48.358;2.122;2023-02-11T00:25:26;103111.00;;;3.31;79.74
76404;BME280;65232;48.358;2.122;2023-02-11T00:25:51;103117.19;;;3.30;79.82
76404;BME280;65232;48.358;2.122;2023-02-11T00:26:19;103120.63;;;3.37;79.87
76404;BME280;65232;48.358;2.122;2023-02-11T00:26:45;103116.19;;;3.39;79.53
76404;BME280;65232;48.358;2.122;2023-02-11T00:27:10;103118.84;;;3.39;79.79
76404;BME280;65232;48.358;2.122;2023-02-11T00:27:36;103120.50;;;3.43;79.61
76404;BME280;65232;48.358;2.122;2023-02-11T00:28:02;103119.59;;;3.44;79.39
76404;BME280;65232;48.358;2.122;2023-02-11T00:28:27;103119.75;;;3.36;79.91
76404;BME280;65232;48.358;2.122;2023-02-11T00:28:53;103118.88;;;3.34;79.90
76404;BME280;65232;48.358;2.122;2023-02-11T00:29:18;103117.19;;;3.30;80.27
76404;BME280;65232;48.358;2.122;2023-02-11T00:29:44;103115.41;;;3.31;79.84
76404;BME280;65232;48.358;2.122;2023-02-11T00:30:09;103114.56;;;3.29;79.64
76404;BME280;65232;48.358;2.122;2023-02-11T00:30:37;103123.34;;;3.31;79.69
76404;BME280;65232;48.358;2.122;2023-02-11T00:31:02;103118.94;;;3.30;79.92
76404;BME280;65232;48.358;2.122;2023-02-11T00:31:28;103119.03;;;3.25;79.98
76404;BME280;65232;48.358;2.122;2023-02-11T00:31:53;103123.47;;;3.25;80.21
76404;BME280;65232;48.358;2.122;2023-02-11T00:32:19;103119.84;;;3.29;80.13
76404;BME280;65232;48.358;2.122;2023-02-11T00:32:44;103119.81;;;3.32;80.11
76404;BME280;65232;48.358;2.122;2023-02-11T00:33:10;103113.63;;;3.31;79.78
76404;BME280;65232;48.358;2.122;2023-02-11T00:33:35;103114.53;;;3.30;79.85
76404;BME280;65232;48.358;2.122;2023-02-11T00:34:01;103118.09;;;3.28;79.90
76404;BME280;65232;48.358;2.122;2023-02-11T00:34:26;103120.69;;;3.31;80.05
76404;BME280;65232;48.358;2.122;2023-02-11T00:34:51;103124.25;;;3.28;80.26
76404;BME280;65232;48.358;2.122;2023-02-11T00:35:19;103118.03;;;3.32;80.05
76404;BME280;65232;48.358;2.122;2023-02-11T00:35:44;103122.44;;;3.33;80.34
76404;BME280;65232;48.358;2.122;2023-02-11T00:36:13;103123.47;;;3.25;80.31
76404;BME280;65232;48.358;2.122;2023-02-11T00:36:39;103124.25;;;3.30;80.49
76404;BME280;65232;48.358;2.122;2023-02-11T00:37:06;103117.13;;;3.33;80.34
76404;BME280;65232;48.358;2.122;2023-02-11T00:37:32;103118.00;;;3.35;80.49
76404;BME280;65232;48.358;2.122;2023-02-11T00:38:01;103113.56;;;3.37;80.44
76404;BME280;65232;48.358;2.122;2023-02-11T00:38:26;103119.78;;;3.33;80.48
76404;BME280;65232;48.358;2.122;2023-02-11T00:38:53;103109.19;;;3.33;80.53
76404;BME280;65232;48.358;2.122;2023-02-11T00:39:19;103112.72;;;3.34;80.77
76404;BME280;65232;48.358;2.122;2023-02-11T00:39:44;103110.06;;;3.35;80.36
76404;BME280;65232;48.358;2.122;2023-02-11T00:40:10;103107.44;;;3.32;80.39
76404;BME280;65232;48.358;2.122;2023-02-11T00:40:36;103112.75;;;3.32;80.37
76404;BME280;65232;48.358;2.122;2023-02-11T00:41:02;103104.84;;;3.29;80.22
76404;BME280;65232;48.358;2.122;2023-02-11T00:41:28;103110.22;;;3.25;80.11
76404;BME280;65232;48.358;2.122;2023-02-11T00:41:53;103108.41;;;3.27;80.13
76404;BME280;65232;48.358;2.122;2023-02-11T00:42:19;103110.13;;;3.29;80.13
76404;BME280;65232;48.358;2.122;2023-02-11T00:42:44;103110.22;;;3.25;79.89
76404;BME280;65232;48.358;2.122;2023-02-11T00:43:10;103106.72;;;3.24;79.92
76404;BME280;65232;48.358;2.122;2023-02-11T00:43:35;103107.66;;;3.20;80.17
76404;BME280;65232;48.358;2.122;2023-02-11T00:44:02;103104.13;;;3.19;80.48
76404;BME280;65232;48.358;2.122;2023-02-11T00:44:27;103104.03;;;3.26;80.21
76404;BME280;65232;48.358;2.122;2023-02-11T00:44:53;103101.47;;;3.21;80.06
76404;BME280;65232;48.358;2.122;2023-02-11T00:45:18;103103.22;;;3.21;80.01
76404;BME280;65232;48.358;2.122;2023-02-11T00:45:45;103105.84;;;3.24;80.19
76404;BME280;65232;48.358;2.122;2023-02-11T00:46:11;103100.53;;;3.25;80.01
76404;BME280;65232;48.358;2.122;2023-02-11T00:46:36;103101.31;;;3.29;80.05
76404;BME280;65232;48.358;2.122;2023-02-11T00:47:02;103107.59;;;3.23;80.27
76404;BME280;65232;48.358;2.122;2023-02-11T00:47:27;103111.06;;;3.27;80.12
76404;BME280;65232;48.358;2.122;2023-02-11T00:47:53;103104.94;;;3.25;79.88
76404;BME280;65232;48.358;2.122;2023-02-11T00:48:18;103108.56;;;3.16;80.01
76404;BME280;65232;48.358;2.122;2023-02-11T00:48:44;103105.00;;;3.20;80.01
76404;BME280;65232;48.358;2.122;2023-02-11T00:49:09;103100.66;;;3.14;80.30
76404;BME280;65232;48.358;2.122;2023-02-11T00:49:35;103098.78;;;3.23;80.20
76404;BME280;65232;48.358;2.122;2023-02-11T00:50:01;103108.53;;;3.21;80.13
76404;BME280;65232;48.358;2.122;2023-02-11T00:50:29;103104.06;;;3.24;80.32
76404;BME280;65232;48.358;2.122;2023-02-11T00:50:54;103103.16;;;3.25;80.15
76404;BME280;65232;48.358;2.122;2023-02-11T00:51:20;103096.88;;;3.31;79.85
76404;BME280;65232;48.358;2.122;2023-02-11T00:51:46;103103.06;;;3.31;79.97
76404;BME280;65232;48.358;2.122;2023-02-11T00:52:11;103095.19;;;3.27;80.06
76404;BME280;65232;48.358;2.122;2023-02-11T00:52:37;103099.66;;;3.23;80.01
76404;BME280;65232;48.358;2.122;2023-02-11T00:53:02;103098.78;;;3.24;80.10
76404;BME280;65232;48.358;2.122;2023-02-11T00:53:28;103097.88;;;3.25;80.02
76404;BME280;65232;48.358;2.122;2023-02-11T00:53:53;103097.03;;;3.22;79.98
76404;BME280;65232;48.358;2.122;2023-02-11T00:54:19;103093.50;;;3.23;79.94
76404;BME280;65232;48.358;2.122;2023-02-11T00:54:44;103092.59;;;3.24;79.96
76404;BME280;65232;48.358;2.122;2023-02-11T00:55:10;103103.25;;;3.19;79.99
76404;BME280;65232;48.358;2.122;2023-02-11T00:55:35;103097.03;;;3.22;80.09
76404;BME280;65232;48.358;2.122;2023-02-11T00:56:01;103097.03;;;3.22;80.35
76404;BME280;65232;48.358;2.122;2023-02-11T00:56:26;103095.34;;;3.17;80.33
76404;BME280;65232;48.358;2.122;2023-02-11T00:56:54;103098.84;;;3.18;80.49
76404;BME280;65232;48.358;2.122;2023-02-11T00:57:19;103091.75;;;3.22;80.29
76404;BME280;65232;48.358;2.122;2023-02-11T00:57:45;103096.16;;;3.23;80.22
76404;BME280;65232;48.358;2.122;2023-02-11T00:58:10;103102.34;;;3.22;80.19
76404;BME280;65232;48.358;2.122;2023-02-11T00:58:36;103094.34;;;3.26;80.27
76404;BME280;65232;48.358;2.122;2023-02-11T00:59:01;103097.88;;;3.25;79.83
76404;BME280;65232;48.358;2.122;2023-02-11T00:59:27;103097.91;;;3.24;79.94
76404;BME280;65232;48.358;2.122;2023-02-11T00:59:52;103096.16;;;3.21;79.99
76404;BME280;65232;48.358;2.122;2023-02-11T01:00:18;103097.88;;;3.25;79.97
76404;BME280;65232;48.358;2.122;2023-02-11T01:00:44;103096.19;;;3.19;80.21
76404;BME280;65232;48.358;2.122;2023-02-11T01:01:09;103089.13;;;3.20;80.21
76404;BME280;65232;48.358;2.122;2023-02-11T01:01:36;103094.38;;;3.23;79.96
76404;BME280;65232;48.358;2.122;2023-02-11T01:02:02;103097.88;;;3.25;80.09
76404;BME280;65232;48.358;2.122;2023-02-11T01:02:27;103094.47;;;3.17;79.92
76404;BME280;65232;48.358;2.122;2023-02-11T01:02:53;103090.06;;;3.14;80.14
76404;BME280;65232;48.358;2.122;2023-02-11T01:03:18;103098.00;;;3.16;80.30
76404;BME280;65232;48.358;2.122;2023-02-11T01:03:44;103091.91;;;3.11;80.42
76404;BME280;65232;48.358;2.122;2023-02-11T01:04:09;103086.72;;;3.03;80.32
76404;BME280;65232;48.358;2.122;2023-02-11T01:04:35;103091.06;;;3.09;80.32
76404;BME280;65232;48.358;2.122;2023-02-11T01:05:00;103091.06;;;3.09;80.32
76404;BME280;65232;48.358;2.122;2023-02-11T01:05:26;103092.72;;;3.14;80.27
76404;BME280;65232;48.358;2.122;2023-02-11T01:05:52;103093.69;;;3.10;80.53
76404;BME280;65232;48.358;2.122;2023-02-11T01:06:17;103097.22;;;3.11;80.33
76404;BME280;65232;48.358;2.122;2023-02-11T01:06:43;103094.56;;;3.11;80.42
76404;BME280;65232;48.358;2.122;2023-02-11T01:07:08;103100.75;;;3.10;80.47
76404;BME280;65232;48.358;2.122;2023-02-11T01:07:34;103099.97;;;3.02;80.58
76404;BME280;65232;48.358;2.122;2023-02-11T01:07:59;103100.88;;;3.01;80.93
76404;BME280;65232;48.358;2.122;2023-02-11T01:08:25;103099.06;;;3.03;80.75
76404;BME280;65232;48.358;2.122;2023-02-11T01:08:50;103096.41;;;3.04;80.59
76404;BME280;65232;48.358;2.122;2023-02-11T01:09:16;103098.16;;;3.07;80.57
76404;BME280;65232;48.358;2.122;2023-02-11T01:09:41;103098.13;;;3.08;80.24
76404;BME280;65232;48.358;2.122;2023-02-11T01:10:07;103096.34;;;3.09;80.31
76404;BME280;65232;48.358;2.122;2023-02-11T01:10:33;103093.69;;;3.10;80.48
76404;BME280;65232;48.358;2.122;2023-02-11T01:11:01;103095.38;;;3.14;80.20
76404;BME280;65232;48.358;2.122;2023-02-11T01:11:26;103099.78;;;3.14;80.49
76404;BME280;65232;48.358;2.122;2023-02-11T01:11:52;103089.19;;;3.14;80.04
76404;BME280;65232;48.358;2.122;2023-02-11T01:12:17;103092.66;;;3.19;79.86
76404;BME280;65232;48.358;2.122;2023-02-11T01:12:43;103095.31;;;3.19;79.79
76404;BME280;65232;48.358;2.122;2023-02-11T01:13:08;103089.19;;;3.15;79.92
76404;BME280;65232;48.358;2.122;2023-02-11T01:13:35;103088.31;;;3.15;79.63
76404;BME280;65232;48.358;2.122;2023-02-11T01:14:01;103086.56;;;3.12;79.91
76404;BME280;65232;48.358;2.122;2023-02-11T01:14:26;103094.56;;;3.11;79.79
76404;BME280;65232;48.358;2.122;2023-02-11T01:14:52;103097.28;;;3.06;79.76
76404;BME280;65232;48.358;2.122;2023-02-11T01:15:19;103092.84;;;3.07;79.93
76404;BME280;65232;48.358;2.122;2023-02-11T01:15:44;103092.88;;;3.04;79.73
76404;BME280;65232;48.358;2.122;2023-02-11T01:16:10;103087.63;;;3.01;79.88
76404;BME280;65232;48.358;2.122;2023-02-11T01:16:36;103088.56;;;2.98;80.14
76404;BME280;65232;48.358;2.122;2023-02-11T01:17:04;103086.78;;;2.99;80.39
76404;BME280;65232;48.358;2.122;2023-02-11T01:17:30;103093.09;;;2.90;80.29
76404;BME280;65232;48.358;2.122;2023-02-11T01:17:55;103095.72;;;2.90;80.53
76404;BME280;65232;48.358;2.122;2023-02-11T01:18:21;103104.56;;;2.89;80.69
76404;BME280;65232;48.358;2.122;2023-02-11T01:18:47;103093.06;;;2.92;80.58
76404;BME280;65232;48.358;2.122;2023-02-11T01:19:15;103088.66;;;2.94;80.61
76404;BME280;65232;48.358;2.122;2023-02-11T01:19:44;103094.91;;;2.87;80.60
76404;BME280;65232;48.358;2.122;2023-02-11T01:20:15;103096.66;;;2.86;80.63
76404;BME280;65232;48.358;2.122;2023-02-11T01:20:41;103094.84;;;2.90;80.75
76404;BME280;65232;48.358;2.122;2023-02-11T01:21:07;103102.81;;;2.88;80.45
76404;BME280;65232;48.358;2.122;2023-02-11T01:21:32;103100.09;;;2.94;80.28
76404;BME280;65232;48.358;2.122;2023-02-11T01:21:58;103090.47;;;2.87;80.40
76404;BME280;65232;48.358;2.122;2023-02-11T01:22:23;103095.81;;;2.84;80.78
76404;BME280;65232;48.358;2.122;2023-02-11T01:22:49;103096.63;;;2.91;80.34
76404;BME280;65232;48.358;2.122;2023-02-11T01:23:14;103095.72;;;2.90;80.52
76404;BME280;65232;48.358;2.122;2023-02-11T01:23:42;103093.84;;;2.98;80.18
76404;BME280;65232;48.358;2.122;2023-02-11T01:24:10;103090.31;;;2.98;80.22
76404;BME280;65232;48.358;2.122;2023-02-11T01:24:35;103095.59;;;2.98;80.30
76404;BME280;65232;48.358;2.122;2023-02-11T01:25:01;103103.59;;;2.96;80.42
76404;BME280;65232;48.358;2.122;2023-02-11T01:25:27;103093.84;;;2.98;79.96
76404;BME280;65232;48.358;2.122;2023-02-11T01:25:52;103093.81;;;3.00;79.80
76404;BME280;65232;48.358;2.122;2023-02-11T01:26:18;103100.06;;;2.96;80.20
76404;BME280;65232;48.358;2.122;2023-02-11T01:26:44;103101.88;;;2.94;80.36
76404;BME280;65232;48.358;2.122;2023-02-11T01:27:09;103088.56;;;2.98;80.17
76404;BME280;65232;48.358;2.122;2023-02-11T01:27:35;103092.03;;;3.02;80.12
76404;BME280;65232;48.358;2.122;2023-02-11T01:28:01;103088.59;;;2.97;79.90
76404;BME280;65232;48.358;2.122;2023-02-11T01:28:29;103090.31;;;2.99;80.07
76404;BME280;65232;48.358;2.122;2023-02-11T01:28:57;103085.13;;;2.93;79.98
76404;BME280;65232;48.358;2.122;2023-02-11T01:29:26;103087.78;;;2.92;80.22
76404;BME280;65232;48.358;2.122;2023-02-11T01:29:53;103090.47;;;2.87;80.32
76404;BME280;65232;48.358;2.122;2023-02-11T01:30:19;103090.50;;;2.86;80.25
76404;BME280;65232;48.358;2.122;2023-02-11T01:30:46;103091.28;;;2.94;80.48
76404;BME280;65232;48.358;2.122;2023-02-11T01:31:12;103091.19;;;3.00;79.93
76404;BME280;65232;48.358;2.122;2023-02-11T01:31:37;103088.63;;;2.95;79.97
76404;BME280;65232;48.358;2.122;2023-02-11T01:32:03;103094.84;;;2.90;80.14
76404;BME280;65232;48.358;2.122;2023-02-11T01:32:28;103093.22;;;2.81;80.35
76404;BME280;65232;48.358;2.122;2023-02-11T01:32:54;103097.66;;;2.79;80.47
76404;BME280;65232;48.358;2.122;2023-02-11T01:33:20;103097.66;;;2.79;80.75
76404;BME280;65232;48.358;2.122;2023-02-11T01:33:46;103099.41;;;2.81;80.48
76404;BME280;65232;48.358;2.122;2023-02-11T01:34:11;103095.00;;;2.80;80.76
76404;BME280;65232;48.358;2.122;2023-02-11T01:34:37;103097.69;;;2.76;80.52
76404;BME280;65232;48.358;2.122;2023-02-11T01:35:03;103091.56;;;2.72;80.94
76404;BME280;65232;48.358;2.122;2023-02-11T01:35:28;103095.13;;;2.68;81.02
76404;BME280;65232;48.358;2.122;2023-02-11T01:35:55;103097.81;;;2.67;80.81
76404;BME280;65232;48.358;2.122;2023-02-11T01:36:24;103090.81;;;2.64;81.01
76404;BME280;65232;48.358;2.122;2023-02-11T01:36:56;103092.53;;;2.67;81.18
76404;BME280;65232;48.358;2.122;2023-02-11T01:37:21;103088.97;;;2.69;80.87
76404;BME280;65232;48.358;2.122;2023-02-11T01:37:47;103090.69;;;2.72;80.90
76404;BME280;65232;48.358;2.122;2023-02-11T01:38:19;103089.75;;;2.77;80.80
76404;BME280;65232;48.358;2.122;2023-02-11T01:38:45;103091.50;;;2.77;80.63
76404;BME280;65232;48.358;2.122;2023-02-11T01:39:10;103081.72;;;2.82;80.70
76404;BME280;65232;48.358;2.122;2023-02-11T01:39:37;103084.34;;;2.85;80.50
76404;BME280;65232;48.358;2.122;2023-02-11T01:40:04;103083.38;;;2.91;80.23
76404;BME280;65232;48.358;2.122;2023-02-11T01:40:29;103081.63;;;2.91;80.33
76404;BME280;65232;48.358;2.122;2023-02-11T01:40:57;103084.22;;;2.96;80.17
76404;BME280;65232;48.358;2.122;2023-02-11T01:41:24;103083.31;;;2.97;79.96
76404;BME280;65232;48.358;2.122;2023-02-11T01:41:50;103081.50;;;2.99;79.90
76404;BME280;65232;48.358;2.122;2023-02-11T01:42:18;103081.50;;;2.99;79.98
76404;BME280;65232;48.358;2.122;2023-02-11T01:42:43;103082.44;;;2.96;79.85
76404;BME280;65232;48.358;2.122;2023-02-11T01:43:09;103075.28;;;3.03;79.92
76404;BME280;65232;48.358;2.122;2023-02-11T01:43:40;103082.34;;;3.01;79.65
76404;BME280;65232;48.358;2.122;2023-02-11T01:44:26;103078.06;;;2.94;79.71
76404;BME280;65232;48.358;2.122;2023-02-11T01:44:53;103071.97;;;2.89;80.04
76404;BME280;65232;48.358;2.122;2023-02-11T01:46:38;103070.34;;;2.80;80.48
76404;BME280;65232;48.358;2.122;2023-02-11T01:47:03;103075.66;;;2.77;80.58
76404;BME280;65232;48.358;2.122;2023-02-11T01:47:30;103073.03;;;2.74;80.53
76404;BME280;65232;48.358;2.122;2023-02-11T01:47:55;103071.22;;;2.79;80.53
76404;BME280;65232;48.358;2.122;2023-02-11T01:48:25;103075.66;;;2.75;80.68
76404;BME280;65232;48.358;2.122;2023-02-11T01:49:05;103076.63;;;2.68;80.87
76404;BME280;65232;48.358;2.122;2023-02-11T01:49:37;103076.69;;;2.65;81.21
76404;BME280;65232;48.358;2.122;2023-02-11T01:50:04;103081.09;;;2.66;81.01
76404;BME280;65232;48.358;2.122;2023-02-11T01:50:29;103075.81;;;2.66;81.23
76404;BME280;65232;48.358;2.122;2023-02-11T01:51:03;103074.94;;;2.64;81.23
76404;BME280;65232;48.358;2.122;2023-02-11T01:51:34;103075.72;;;2.71;81.04
76404;BME280;65232;48.358;2.122;2023-02-11T01:52:16;103076.59;;;2.71;80.96
76404;BME280;65232;48.358;2.122;2023-02-11T01:52:44;103076.63;;;2.68;80.85
76404;BME280;65232;48.358;2.122;2023-02-11T01:53:14;103077.50;;;2.70;80.83
76404;BME280;65232;48.358;2.122;2023-02-11T01:53:59;103065.03;;;2.80;80.63
76404;BME280;65232;48.358;2.122;2023-02-11T01:54:48;103068.47;;;2.87;80.16
76404;BME280;65232;48.358;2.122;2023-02-11T01:55:33;103064.91;;;2.88;80.08
76404;BME280;65232;48.358;2.122;2023-02-11T01:56:19;103067.66;;;2.81;79.82
76404;BME280;65232;48.358;2.122;2023-02-11T01:57:04;103070.38;;;2.75;79.95
76404;BME280;65232;48.358;2.122;2023-02-11T01:57:52;103068.69;;;2.68;80.32
76404;BME280;65232;48.358;2.122;2023-02-11T01:58:21;103075.75;;;2.68;80.37
76404;BME280;65232;48.358;2.122;2023-02-11T01:58:48;103068.78;;;2.65;80.48
76404;BME280;65232;48.358;2.122;2023-02-11T01:59:29;103072.28;;;2.66;80.32
76404;BME280;65232;48.358;2.122;2023-02-11T02:00:41;103073.16;;;2.66;80.65
76404;BME280;65232;48.358;2.122;2023-02-11T02:01:09;103073.22;;;2.60;80.89
76404;BME280;65232;48.358;2.122;2023-02-11T02:01:37;103074.09;;;2.62;80.78
76404;BME280;65232;48.358;2.122;2023-02-11T02:02:07;103073.19;;;2.63;80.63
76404;BME280;65232;48.358;2.122;2023-02-11T02:03:16;103067.94;;;2.62;80.99
76404;BME280;65232;48.358;2.122;2023-02-11T02:03:46;103074.06;;;2.64;80.98
76404;BME280;65232;48.358;2.122;2023-02-11T02:04:16;103060.91;;;2.61;80.89
76404;BME280;65232;48.358;2.122;2023-02-11T02:04:51;103068.91;;;2.53;81.00
76404;BME280;65232;48.358;2.122;2023-02-11T02:06:27;103061.78;;;2.60;80.79
76404;BME280;65232;48.358;2.122;2023-02-11T02:06:59;103058.25;;;2.59;80.98
76404;BME280;65232;48.358;2.122;2023-02-11T02:07:32;103060.91;;;2.59;80.82
76404;BME280;65232;48.358;2.122;2023-02-11T02:08:38;103048.59;;;2.58;80.77
76404;BME280;65232;48.358;2.122;2023-02-11T02:09:14;103054.66;;;2.66;80.70
76404;BME280;65232;48.358;2.122;2023-02-11T02:09:47;103052.09;;;2.59;80.58
76404;BME280;65232;48.358;2.122;2023-02-11T02:10:16;103048.56;;;2.60;80.83
76404;BME280;65232;48.358;2.122;2023-02-11T02:10:45;103048.63;;;2.54;80.79
76404;BME280;65232;48.358;2.122;2023-02-11T02:11:11;103056.63;;;2.51;80.63
76404;BME280;65232;48.358;2.122;2023-02-11T02:11:37;103052.28;;;2.45;80.72
76404;BME280;65232;48.358;2.122;2023-02-11T02:12:02;103050.53;;;2.44;80.54
76404;BME280;65232;48.358;2.122;2023-02-11T02:12:28;103053.25;;;2.38;81.28
76404;BME280;65232;48.358;2.122;2023-02-11T02:12:54;103048.88;;;2.37;81.37
76404;BME280;65232;48.358;2.122;2023-02-11T02:13:19;103043.63;;;2.34;81.18
76404;BME280;65232;48.358;2.122;2023-02-11T02:13:45;103045.44;;;2.30;81.19
76404;BME280;65232;48.358;2.122;2023-02-11T02:14:11;103045.38;;;2.35;81.26
76404;BME280;65232;48.358;2.122;2023-02-11T02:14:38;103050.59;;;2.39;80.99
76404;BME280;65232;48.358;2.122;2023-02-11T02:15:18;103044.50;;;2.34;80.96
76404;BME280;65232;48.358;2.122;2023-02-11T02:16:01;103047.19;;;2.30;81.26
76404;BME280;65232;48.358;2.122;2023-02-11T02:16:35;103040.16;;;2.30;81.28
76404;BME280;65232;48.358;2.122;2023-02-11T02:17:01;103043.69;;;2.29;81.08
76404;BME280;65232;48.358;2.122;2023-02-11T02:17:39;103037.50;;;2.32;80.95
76404;BME280;65232;48.358;2.122;2023-02-11T02:20:33;103041.94;;;2.28;80.93
76404;BME280;65232;48.358;2.122;2023-02-11T02:22:51;103034.16;;;2.18;81.19
76404;BME280;65232;48.358;2.122;2023-02-11T02:24:30;103032.38;;;2.17;80.97
76404;BME280;65232;48.358;2.122;2023-02-11T02:25:18;103029.72;;;2.18;80.97
76404;BME280;65232;48.358;2.122;2023-02-11T02:27:02;103029.78;;;2.15;81.12
76404;BME280;65232;48.358;2.122;2023-02-11T02:31:12;103021.16;;;1.99;81.89
76404;BME280;65232;48.358;2.122;2023-02-11T02:33:09;103026.38;;;2.05;81.53
76404;BME280;65232;48.358;2.122;2023-02-11T02:33:55;103026.44;;;1.98;81.40
76404;BME280;65232;48.358;2.122;2023-02-11T02:34:47;103011.50;;;1.97;81.59
76404;BME280;65232;48.358;2.122;2023-02-11T02:35:31;103021.16;;;1.98;81.09
76404;BME280;65232;48.358;2.122;2023-02-11T02:36:44;103014.13;;;1.98;81.03
76404;BME280;65232;48.358;2.122;2023-02-11T02:37:18;103021.16;;;1.98;80.87
76404;BME280;65232;48.358;2.122;2023-02-11T02:38:33;103024.75;;;1.92;81.01
76404;BME280;65232;48.358;2.122;2023-02-11T02:39:15;103012.38;;;1.96;81.14
76404;BME280;65232;48.358;2.122;2023-02-11T02:39:44;103016.69;;;2.04;81.06
76404;BME280;65232;48.358;2.122;2023-02-11T02:40:14;103019.34;;;2.03;81.00
76404;BME280;65232;48.358;2.122;2023-02-11T02:40:48;103017.59;;;2.03;80.89
76404;BME280;65232;48.358;2.122;2023-02-11T02:41:18;103014.13;;;1.98;80.63
76404;BME280;65232;48.358;2.122;2023-02-11T02:41:46;103010.63;;;1.95;80.51
76404;BME280;65232;48.358;2.122;2023-02-11T02:42:13;103023.81;;;1.96;80.54
76404;BME280;65232;48.358;2.122;2023-02-11T02:42:40;103021.22;;;1.93;80.67
76404;BME280;65232;48.358;2.122;2023-02-11T02:43:07;103021.22;;;1.93;80.78
76404;BME280;65232;48.358;2.122;2023-02-11T02:43:36;103012.38;;;1.96;80.67
76404;BME280;65232;48.358;2.122;2023-02-11T02:44:03;103011.47;;;1.98;80.77